Time;durP1;ratioP1;P1;durP2;ratioP2;P2;SDS_P1;SDS_P2;PMS_P1;PMS_P2;Temp;Humidity;BMP_temperature;BMP_pressure;BME280_temperature;BME280_humidity;BME280_pressure;Samples;Min_cycle;Max_cycle;Signal;HPM_P1;HPM_P2
2022/05/11 00:01:47;;;;;;;6.80;5.10;;;17.10;99.90;;;16.10;100.00;97560.97;4978761;28;20105;-73
2022/05/11 00:04:16;;;;;;;6.55;4.40;;;17.00;99.90;;;16.09;100.00;97559.31;4980396;28;20166;-73
2022/05/11 00:06:43;;;;;;;6.63;4.68;;;17.00;99.90;;;16.14;100.00;97551.16;4979955;28;20082;-73
2022/05/11 00:09:12;;;;;;;6.85;4.80;;;16.90;99.90;;;16.20;100.00;97550.75;4981064;28;20078;-74
2022/05/11 00:11:40;;;;;;;6.60;5.35;;;16.90;99.90;;;16.02;100.00;97551.00;4979898;28;20137;-73
2022/05/11 00:14:07;;;;;;;8.27;4.28;;;16.90;99.90;;;16.22;100.00;97541.03;4987689;28;20078;-74
2022/05/11 00:16:35;;;;;;;7.63;4.72;;;16.80;99.90;;;16.27;100.00;97537.16;4984971;28;20154;-73
2022/05/11 00:19:02;;;;;;;7.43;5.00;;;16.80;99.90;;;16.20;100.00;97533.25;4982042;28;20059;-73
2022/05/11 00:21:30;;;;;;;4.70;4.22;;;16.80;99.90;;;16.21;100.00;97534.09;4984171;28;20132;-73
2022/05/11 00:23:58;;;;;;;7.07;4.03;;;16.80;99.90;;;16.16;100.00;97542.25;4988803;28;20128;-73
2022/05/11 00:26:24;;;;;;;5.50;4.50;;;16.80;99.90;;;16.07;100.00;97538.44;4984668;28;20074;-73
2022/05/11 00:28:52;;;;;;;5.82;4.78;;;16.70;99.90;;;16.08;100.00;97537.53;4982395;28;20052;-74
2022/05/11 00:31:19;;;;;;;7.30;4.68;;;16.70;99.90;;;15.99;100.00;97534.69;4981700;28;20050;-74
2022/05/11 00:33:47;;;;;;;6.60;4.88;;;16.60;99.90;;;15.81;100.00;97545.41;4986905;28;20405;-74
2022/05/11 00:36:14;;;;;;;6.18;5.00;;;16.60;99.90;;;15.71;100.00;97546.91;4980025;28;20428;-74
2022/05/11 00:38:41;;;;;;;7.30;5.13;;;16.60;99.90;;;15.79;100.00;97544.66;4984539;28;20097;-73
2022/05/11 00:41:09;;;;;;;7.78;5.20;;;16.50;99.90;;;15.78;100.00;97542.13;4984583;28;20134;-74
2022/05/11 00:43:43;;;;;;;8.20;5.47;;;16.50;99.90;;;15.72;100.00;97537.31;4979146;28;20121;-74
2022/05/11 00:46:39;;;;;;;10.52;4.65;;;16.40;99.90;;;15.71;100.00;97540.84;4982347;28;20078;-73
2022/05/11 00:52:02;;;;;;;8.95;5.05;;;16.40;99.90;;;15.57;100.00;97533.84;4985940;28;20122;-73
2022/05/11 00:54:34;;;;;;;6.82;5.47;;;16.40;99.90;;;15.60;100.00;97542.34;4980508;28;20540;-72
2022/05/11 00:57:06;;;;;;;7.53;5.70;;;16.40;99.90;;;15.61;100.00;97536.16;4980060;28;20145;-74
2022/05/11 00:59:37;;;;;;;;;;;16.40;99.90;;;15.61;100.00;97535.31;4984590;28;20482;-73
2022/05/11 01:02:06;;;;;;;5.72;5.13;;;16.40;99.90;;;15.67;100.00;97525.31;4989010;28;20032;-73
2022/05/11 01:04:40;;;;;;;6.65;5.18;;;16.40;99.90;;;15.69;100.00;97520.81;4987877;28;20050;-73
2022/05/11 01:07:13;;;;;;;6.90;4.95;;;16.40;99.90;;;15.65;100.00;97521.13;4996228;28;20596;-74
2022/05/11 01:09:41;;;;;;;8.05;5.05;;;16.40;99.90;;;15.68;100.00;97516.50;4981836;28;20153;-73
2022/05/11 01:12:17;;;;;;;6.93;5.13;;;16.40;99.90;;;15.64;100.00;97511.56;4985419;28;20493;-72
2022/05/11 01:14:50;;;;;;;10.07;5.70;;;16.40;99.90;;;15.63;100.00;97520.38;4984005;28;20130;-74
2022/05/11 01:17:18;;;;;;;8.77;5.50;;;16.40;99.90;;;15.57;100.00;97513.75;4987712;28;20096;-73
2022/05/11 01:19:46;;;;;;;6.13;4.90;;;16.30;99.90;;;15.65;100.00;97510.66;4978316;28;20141;-73
2022/05/11 01:22:33;;;;;;;6.13;4.53;;;16.30;99.90;;;15.72;100.00;97504.13;4979670;28;20146;-73
2022/05/11 01:25:04;;;;;;;6.72;5.07;;;16.30;99.90;;;15.64;100.00;97507.16;4977222;28;20129;-73
2022/05/11 01:27:41;;;;;;;5.57;4.40;;;16.30;99.90;;;15.71;100.00;97512.88;4984290;28;20092;-73
2022/05/11 01:30:21;;;;;;;5.60;4.82;;;16.30;99.90;;;15.75;100.00;97497.84;4977135;28;20477;-73
2022/05/11 01:32:55;;;;;;;9.50;5.53;;;16.30;99.90;;;15.60;100.00;97502.22;4987108;28;20078;-73
2022/05/11 01:35:32;;;;;;;6.13;5.03;;;16.30;99.90;;;15.60;100.00;97508.31;4961006;28;20084;-73
2022/05/11 01:38:38;;;;;;;5.97;5.22;;;16.30;99.90;;;15.56;100.00;97512.06;4974825;28;20551;-74
2022/05/11 01:41:06;;;;;;;7.57;4.75;;;16.20;99.90;;;15.54;100.00;97506.09;4977804;28;20133;-73
2022/05/11 01:43:38;;;;;;;6.57;4.70;;;16.20;99.90;;;15.56;100.00;97508.63;4988954;28;20054;-73
2022/05/11 01:46:06;;;;;;;6.55;5.35;;;16.20;99.90;;;15.47;100.00;97503.03;4980123;28;20054;-73
2022/05/11 01:48:34;;;;;;;8.43;5.50;;;16.20;99.90;;;15.52;100.00;97502.75;4985832;28;20093;-73
2022/05/11 01:51:02;;;;;;;7.40;5.40;;;16.20;99.90;;;15.42;100.00;97502.50;4981230;28;20205;-74
2022/05/11 01:53:29;;;;;;;8.77;5.03;;;16.20;99.90;;;15.52;100.00;97505.34;4978530;28;20153;-74
2022/05/11 01:55:57;;;;;;;8.25;4.75;;;16.20;99.90;;;15.52;100.00;97507.97;4984402;28;20447;-73
2022/05/11 01:58:24;;;;;;;7.25;5.25;;;16.20;99.90;;;15.55;100.00;97506.94;4987527;28;20146;-73
2022/05/11 02:00:52;;;;;;;11.13;4.95;;;16.20;99.90;;;15.50;100.00;97495.94;4985059;28;20066;-73
2022/05/11 02:03:20;;;;;;;5.82;5.22;;;16.20;99.90;;;15.39;100.00;97504.44;4987414;28;20106;-73
2022/05/11 02:08:37;;;;;;;7.05;5.03;;;16.10;99.90;;;15.34;100.00;97501.28;4983080;28;20477;-73
2022/05/11 02:11:05;;;;;;;6.00;4.88;;;16.10;99.90;;;15.30;100.00;97507.66;4979353;28;20133;-73
2022/05/11 02:13:33;;;;;;;6.15;4.78;;;16.10;99.90;;;15.29;100.00;97506.81;4963309;28;20110;-73
2022/05/11 02:16:00;;;;;;;8.73;5.72;;;16.10;99.90;;;15.29;100.00;97503.38;4980870;28;20506;-73
2022/05/11 02:18:28;;;;;;;8.70;5.07;;;16.00;99.90;;;15.26;100.00;97504.41;4983852;28;20050;-73
2022/05/11 02:20:55;;;;;;;6.00;5.05;;;16.10;99.90;;;15.30;100.00;97497.19;4982505;28;20105;-73
2022/05/11 02:23:24;;;;;;;7.50;5.50;;;16.10;99.90;;;15.21;100.00;97502.06;4974095;28;20084;-73
2022/05/11 02:25:52;;;;;;;6.85;5.63;;;16.00;99.90;;;15.20;100.00;97503.00;4980205;28;20051;-73
2022/05/11 02:28:22;;;;;;;5.97;4.97;;;16.00;99.90;;;15.18;100.00;97504.03;4964545;28;20050;-73
2022/05/11 02:30:53;;;;;;;6.18;5.22;;;16.00;99.90;;;15.17;100.00;97504.97;4980125;28;20520;-73
2022/05/11 02:33:21;;;;;;;6.70;5.22;;;16.00;99.90;;;15.16;100.00;97509.34;4981449;28;20109;-74
2022/05/11 02:35:50;;;;;;;7.22;5.35;;;15.90;99.90;;;15.14;100.00;97503.38;4973566;28;20138;-73
2022/05/11 02:38:40;;;;;;;7.97;4.90;;;16.00;99.90;;;15.14;100.00;97505.97;4981345;28;20141;-73
2022/05/11 02:41:08;;;;;;;6.78;4.97;;;15.90;99.90;;;15.12;100.00;97507.88;4983541;28;20141;-73
2022/05/11 02:43:34;;;;;;;10.95;5.32;;;16.00;99.90;;;15.09;100.00;97512.44;4982405;28;20375;-74
2022/05/11 02:46:02;;;;;;;5.95;4.95;;;15.90;99.90;;;15.15;100.00;97509.47;4980217;28;20086;-72
2022/05/11 02:48:32;;;;;;;7.03;5.35;;;15.90;99.90;;;15.11;100.00;97506.19;4980547;28;20100;-73
2022/05/11 02:51:00;;;;;;;7.68;5.43;;;15.90;99.90;;;15.13;100.00;97509.53;4967626;28;20047;-72
2022/05/11 02:53:30;;;;;;;5.53;4.70;;;15.90;99.90;;;15.15;100.00;97501.63;4983200;28;20082;-73
2022/05/11 02:55:57;;;;;;;8.15;5.07;;;15.90;99.90;;;15.14;100.00;97499.91;4982786;28;20077;-73
2022/05/11 02:58:29;;;;;;;7.00;4.82;;;15.90;99.90;;;15.22;100.00;97497.69;4978091;28;20046;-73
2022/05/11 03:01:02;;;;;;;5.60;4.57;;;15.80;99.90;;;15.39;100.00;97483.53;4973594;28;20113;-73
2022/05/11 03:03:33;;;;;;;5.57;4.60;;;15.90;99.90;;;15.38;100.00;97485.31;4982072;28;20058;-74
2022/05/11 03:06:05;;;;;;;7.82;5.57;;;15.90;99.90;;;15.36;100.00;97491.56;4977683;28;20054;-73
2022/05/11 03:08:34;;;;;;;5.78;4.70;;;15.90;99.90;;;15.30;100.00;97490.16;4967633;28;20093;-73
2022/05/11 03:11:03;;;;;;;7.95;5.18;;;15.90;99.90;;;15.35;100.00;97482.91;4980146;28;20181;-74
2022/05/11 03:13:31;;;;;;;9.50;5.03;;;16.00;99.90;;;15.33;100.00;97484.78;4978107;28;20049;-73
2022/05/11 03:15:58;;;;;;;6.28;4.72;;;16.00;99.90;;;15.39;100.00;97479.13;4978567;28;20162;-73
2022/05/11 03:18:25;;;;;;;8.65;5.00;;;15.90;99.90;;;15.40;100.00;97472.97;4978545;28;20061;-73
2022/05/11 03:20:56;;;;;;;6.15;4.75;;;16.00;99.90;;;15.48;100.00;97478.53;4977574;28;20047;-72
2022/05/11 03:23:25;;;;;;;6.40;4.97;;;16.00;99.90;;;15.44;100.00;97476.22;4975328;28;20141;-73
2022/05/11 03:25:53;;;;;;;5.85;4.57;;;16.00;99.90;;;15.47;100.00;97469.03;4976749;28;20081;-73
2022/05/11 03:28:20;;;;;;;6.28;4.72;;;16.00;99.90;;;15.41;100.00;97468.56;4981919;28;20550;-73
2022/05/11 03:30:47;;;;;;;7.57;5.15;;;16.00;99.90;;;15.37;100.00;97465.34;4976792;28;20094;-73
2022/05/11 03:35:59;;;;;;;7.43;4.60;;;16.00;99.90;;;15.42;100.00;97470.28;4982801;28;20133;-73
2022/05/11 03:38:26;;;;;;;7.93;4.80;;;16.00;99.90;;;15.38;100.00;97472.22;4979617;28;20046;-73
2022/05/11 03:40:54;;;;;;;7.20;5.15;;;16.00;99.90;;;15.34;100.00;97473.34;4976650;28;20588;-74
2022/05/11 03:43:22;;;;;;;7.55;4.63;;;16.00;99.90;;;15.27;100.00;97475.50;4981020;28;20086;-74
2022/05/11 03:45:48;;;;;;;7.40;4.75;;;16.00;99.90;;;15.39;100.00;97467.84;4988803;28;20075;-73
2022/05/11 03:48:16;;;;;;;6.85;5.00;;;15.90;99.90;;;15.42;100.00;97467.66;4975633;28;20074;-74
2022/05/11 03:50:44;;;;;;;8.15;4.28;;;15.90;99.90;;;15.36;100.00;97462.81;4980124;28;20046;-74
2022/05/11 03:53:11;;;;;;;5.78;4.72;;;16.00;99.90;;;15.36;100.00;97458.41;4979738;28;20046;-74
2022/05/11 03:55:38;;;;;;;7.13;5.05;;;16.00;99.90;;;15.35;100.00;97459.38;4977964;28;20108;-73
2022/05/11 03:58:05;;;;;;;8.35;4.50;;;16.00;99.90;;;15.38;100.00;97464.38;4975309;28;20121;-74
2022/05/11 04:00:32;;;;;;;6.22;4.60;;;16.00;99.90;;;15.42;100.00;97462.44;4979805;28;20134;-74
2022/05/11 04:02:59;;;;;;;6.70;4.80;;;16.00;99.90;;;15.38;100.00;97463.56;4978197;28;20051;-73
2022/05/11 04:05:28;;;;;;;6.80;4.30;;;16.00;99.90;;;15.38;100.00;97456.53;4975970;28;20404;-73
2022/05/11 04:07:54;;;;;;;8.13;4.85;;;16.00;99.90;;;15.43;100.00;97456.25;4975240;28;20061;-73
2022/05/11 04:10:22;;;;;;;6.90;4.80;;;16.00;99.90;;;15.38;100.00;97458.31;4977402;28;20075;-73
2022/05/11 04:12:51;;;;;;;7.32;5.00;;;16.00;99.90;;;15.38;100.00;97459.16;4992687;28;20092;-73
2022/05/11 04:15:18;;;;;;;6.20;4.85;;;16.00;99.90;;;15.36;100.00;97453.19;4974631;28;20134;-72
2022/05/11 04:17:45;;;;;;;6.80;4.45;;;16.00;99.90;;;15.36;100.00;97452.34;4976876;28;20149;-72
2022/05/11 04:20:17;;;;;;;7.38;4.70;;;16.10;99.90;;;15.38;100.00;97453.91;4977303;28;20093;-72
2022/05/11 04:22:47;;;;;;;5.93;4.13;;;16.10;99.90;;;15.39;100.00;97447.75;4991546;28;20119;-72
2022/05/11 04:25:16;;;;;;;6.82;4.70;;;16.00;99.90;;;15.46;100.00;97453.41;4978581;28;20140;-72
2022/05/11 04:27:48;;;;;;;5.85;4.40;;;16.00;99.90;;;15.42;100.00;97454.59;4986409;28;20108;-72
2022/05/11 04:30:18;;;;;;;5.18;4.03;;;16.10;99.90;;;15.41;100.00;97445.88;4965825;28;20055;-72
2022/05/11 04:32:46;;;;;;;5.18;4.25;;;16.10;99.90;;;15.41;100.00;97456.31;4978147;28;20077;-72
2022/05/11 04:35:13;;;;;;;7.50;4.47;;;16.10;99.90;;;15.44;100.00;97448.31;4977101;28;20113;-72
2022/05/11 04:37:40;;;;;;;5.63;4.55;;;16.20;99.90;;;15.46;100.00;97448.19;4981504;28;20320;-72
2022/05/11 04:40:10;;;;;;;7.07;4.65;;;16.10;99.90;;;15.46;100.00;97449.06;4977222;28;20409;-73
2022/05/11 04:42:43;;;;;;;7.63;4.72;;;16.20;99.90;;;15.41;100.00;97448.47;4975995;28;20535;-71
2022/05/11 04:45:11;;;;;;;5.80;4.47;;;16.20;99.90;;;15.51;100.00;97450.50;4962036;28;20054;-75
2022/05/11 04:47:38;;;;;;;12.68;3.97;;;16.20;99.90;;;15.56;100.00;97444.06;4984000;28;20178;-74
2022/05/11 04:50:07;;;;;;;6.35;4.93;;;16.20;99.90;;;15.43;100.00;97448.41;4980435;28;20517;-71
2022/05/11 04:52:34;;;;;;;7.63;3.90;;;16.20;99.90;;;15.59;100.00;97451.69;4964768;28;20050;-74
2022/05/11 04:55:04;;;;;;;7.00;4.38;;;16.20;99.90;;;15.60;100.00;97447.28;4976827;28;20120;-73
2022/05/11 04:57:33;;;;;;;7.75;5.28;;;16.30;99.90;;;15.71;100.00;97449.25;4978695;28;20046;-73
2022/05/11 05:00:00;;;;;;;5.05;4.13;;;16.30;99.90;;;15.68;100.00;97445.84;4980183;28;20082;-73
2022/05/11 05:02:27;;;;;;;6.45;4.22;;;16.40;99.90;;;15.69;100.00;97452.78;4983942;28;20488;-73
2022/05/11 05:05:00;;;;;;;7.63;4.75;;;16.40;99.90;;;15.61;100.00;97456.84;4983218;28;20078;-73
2022/05/11 05:07:28;;;;;;;6.30;4.05;;;16.40;99.90;;;15.64;100.00;97449.59;4982518;28;20072;-73
2022/05/11 05:09:55;;;;;;;7.28;4.53;;;16.40;99.90;;;15.66;100.00;97455.59;4986519;28;20081;-73
2022/05/11 05:12:24;;;;;;;9.18;4.30;;;16.40;99.90;;;15.79;100.00;97449.59;4986286;28;20056;-74
2022/05/11 05:14:50;;;;;;;6.47;4.88;;;16.50;99.90;;;15.88;100.00;97455.06;4983869;28;20584;-74
2022/05/11 05:17:18;;;;;;;8.27;4.70;;;16.60;99.90;;;15.83;100.00;97462.38;4982688;28;20058;-74
2022/05/11 05:19:46;;;;;;;9.52;4.90;;;16.70;99.90;;;15.92;100.00;97454.84;4983787;28;20497;-74
2022/05/11 05:22:14;;;;;;;7.57;4.60;;;16.70;99.90;;;16.04;100.00;97454.88;4980239;28;20134;-72
2022/05/11 05:24:42;;;;;;;6.50;5.18;;;16.80;99.90;;;15.92;100.00;97462.69;4987292;28;20077;-74
2022/05/11 05:27:15;;;;;;;9.93;5.05;;;16.80;99.90;;;15.93;100.00;97457.38;4986708;28;20078;-74
2022/05/11 05:32:38;;;;;;;5.22;4.38;;;16.90;99.90;;;16.09;100.00;97460.66;4981692;28;20133;-74
2022/05/11 05:35:07;;;;;;;5.43;4.88;;;17.00;99.90;;;16.17;100.00;97460.16;4986177;28;20077;-74
2022/05/11 05:37:35;;;;;;;6.55;4.38;;;17.10;99.90;;;16.28;100.00;97459.41;4982397;28;20047;-74
2022/05/11 05:40:05;;;;;;;8.18;4.95;;;17.20;99.90;;;16.35;100.00;97462.44;4980096;28;20082;-75
2022/05/11 05:42:32;;;;;;;6.57;5.10;;;17.20;99.90;;;16.17;100.00;97465.38;4982233;28;20134;-73
2022/05/11 05:44:59;;;;;;;5.65;4.60;;;17.30;99.90;;;16.43;100.00;97463.59;4980688;28;20054;-73
2022/05/11 05:47:26;;;;;;;8.18;5.65;;;17.30;99.90;;;16.38;100.00;97472.75;4985293;28;20069;-73
2022/05/11 05:49:53;;;;;;;6.68;5.40;;;17.40;99.90;;;16.44;100.00;97457.41;4975339;28;20586;-74
2022/05/11 05:52:24;;;;;;;6.60;5.25;;;17.40;99.90;;;16.64;100.00;97463.09;4978093;28;20136;-72
2022/05/11 05:54:54;;;;;;;9.00;5.43;;;17.40;99.90;;;16.38;100.00;97467.50;4977916;28;20043;-74
2022/05/11 05:57:21;;;;;;;8.73;5.38;;;17.50;99.90;;;16.56;100.00;97465.38;4979066;28;20050;-74
2022/05/11 05:59:48;;;;;;;10.43;5.45;;;17.60;99.90;;;16.55;100.00;97461.09;4981111;28;20364;-74
2022/05/11 06:02:16;;;;;;;7.28;5.10;;;17.70;99.90;;;16.66;100.00;97467.28;4979658;28;20513;-74
2022/05/11 06:04:49;;;;;;;8.15;5.57;;;17.80;99.90;;;16.58;100.00;97472.22;4966591;28;20050;-74
2022/05/11 06:07:19;;;;;;;7.15;5.10;;;17.80;99.90;;;16.62;100.00;97464.97;4980790;28;20050;-73
2022/05/11 06:09:47;;;;;;;8.27;5.57;;;17.90;99.90;;;16.65;100.00;97463.00;4975998;28;20216;-73
2022/05/11 06:12:15;;;;;;;7.93;5.15;;;17.90;99.90;;;16.83;100.00;97458.28;4993766;28;20148;-74
2022/05/11 06:14:44;;;;;;;7.95;5.30;;;17.90;99.90;;;16.90;100.00;97459.53;4979902;28;20046;-73
2022/05/11 06:17:23;;;;;;;12.30;5.90;;;18.00;99.90;;;16.90;100.00;97462.16;4976450;28;20137;-73
2022/05/11 06:19:52;;;;;;;7.18;5.00;;;18.00;99.90;;;16.96;100.00;97467.91;4977760;28;20209;-74
2022/05/11 06:22:21;;;;;;;5.57;4.88;;;18.10;99.90;;;17.14;100.00;97462.19;4980449;28;20051;-74
2022/05/11 06:24:48;;;;;;;9.20;5.60;;;18.20;99.90;;;17.21;100.00;97464.38;4978578;28;20047;-73
2022/05/11 06:27:20;;;;;;;6.25;5.28;;;18.20;99.90;;;16.97;100.00;97474.81;4975654;28;20069;-73
2022/05/11 06:29:58;;;;;;;7.80;5.57;;;18.30;99.90;;;17.25;100.00;97463.22;4986545;28;20050;-74
2022/05/11 06:32:26;;;;;;;6.85;5.05;;;18.30;99.90;;;17.25;100.00;97465.84;4982985;28;20084;-73
2022/05/11 06:34:54;;;;;;;7.40;5.72;;;18.40;99.90;;;17.20;100.00;97460.94;4980053;28;20150;-73
2022/05/11 06:37:24;;;;;;;8.32;5.88;;;18.40;99.90;;;17.36;100.00;97439.69;4980432;28;20133;-73
2022/05/11 06:39:52;;;;;;;6.47;5.30;;;18.50;99.90;;;17.41;100.00;97458.53;4978984;28;20043;-74
2022/05/11 06:42:20;;;;;;;12.50;6.40;;;18.60;99.90;;;17.49;100.00;97458.84;4984176;28;20501;-74
2022/05/11 06:44:49;;;;;;;11.70;5.78;;;18.70;99.90;;;17.67;100.00;97455.81;4976639;28;20082;-74
2022/05/11 06:47:18;;;;;;;6.85;5.60;;;18.80;99.90;;;17.68;100.00;97466.19;4977473;28;20086;-74
2022/05/11 06:49:45;;;;;;;8.18;6.00;;;18.90;99.90;;;17.77;100.00;97457.66;4978875;28;20054;-73
2022/05/11 06:52:12;;;;;;;6.47;5.28;;;19.00;99.90;;;17.69;100.00;97444.22;4977486;28;20446;-74
2022/05/11 07:00:16;;;;;;;10.30;6.00;;;19.20;99.90;;;18.23;100.00;97442.06;4969911;28;20057;-74
2022/05/11 07:02:43;;;;;;;11.35;4.93;;;19.30;99.90;;;18.23;100.00;97442.91;4981030;28;20133;-74
2022/05/11 07:05:11;;;;;;;7.80;4.90;;;19.30;99.90;;;18.28;100.00;97439.91;4980091;28;20054;-73
2022/05/11 07:07:39;;;;;;;6.65;4.90;;;19.40;99.90;;;18.33;100.00;97448.28;4982657;28;20054;-74
2022/05/11 07:10:07;;;;;;;7.18;4.70;;;19.50;99.90;;;18.48;100.00;97448.91;4976857;28;20078;-72
2022/05/11 07:12:43;;;;;;;8.23;4.57;;;19.50;99.90;;;18.56;100.00;97434.19;4975973;28;20402;-73
2022/05/11 07:15:11;;;;;;;6.57;4.70;;;19.60;99.90;;;18.71;100.00;97436.63;4976611;28;20504;-74
2022/05/11 07:17:42;;;;;;;7.03;5.05;;;19.70;99.90;;;18.64;100.00;97444.16;4977776;28;20504;-74
2022/05/11 07:20:18;;;;;;;7.15;4.80;;;19.80;99.90;;;18.79;100.00;97442.13;4970563;28;20460;-73
2022/05/11 07:22:45;;;;;;;7.65;4.60;;;19.90;99.90;;;18.90;100.00;97438.66;4977049;28;20595;-73
2022/05/11 07:25:17;;;;;;;7.78;4.80;;;20.00;99.90;;;18.75;100.00;97427.53;4978137;28;20088;-74
2022/05/11 07:27:44;;;;;;;5.80;4.45;;;20.00;99.90;;;18.76;100.00;97437.91;4980506;28;20480;-73
2022/05/11 07:30:16;;;;;;;9.52;4.80;;;20.00;99.90;;;18.76;100.00;97442.34;4975895;28;20050;-73
2022/05/11 07:32:44;;;;;;;5.35;4.55;;;20.00;99.90;;;19.03;100.00;97444.63;4979465;28;20089;-74
2022/05/11 07:35:11;;;;;;;14.18;4.70;;;20.00;99.90;;;19.14;100.00;97410.44;4987734;28;20056;-74
2022/05/11 07:37:38;;;;;;;6.00;4.63;;;20.10;99.90;;;19.36;100.00;97430.59;4978750;28;20082;-74
2022/05/11 07:40:09;;;;;;;7.07;4.57;;;20.20;99.90;;;19.05;100.00;97441.91;4982288;28;20122;-73
2022/05/11 07:42:39;;;;;;;6.55;4.10;;;20.30;99.90;;;19.51;100.00;97417.13;4973186;28;20069;-74
2022/05/11 07:45:07;;;;;;;5.78;3.83;;;20.40;99.90;;;19.59;100.00;97428.72;4982676;28;20051;-73
2022/05/11 07:47:34;;;;;;;9.40;4.38;;;20.50;99.90;;;19.82;100.00;97424.22;4986239;28;20130;-74
2022/05/11 07:50:01;;;;;;;7.20;4.53;;;20.60;99.90;;;19.74;100.00;97425.81;4984762;28;20176;-73
2022/05/11 07:52:28;;;;;;;7.60;3.92;;;20.70;99.90;;;19.99;100.00;97422.00;4986538;28;20121;-74
2022/05/11 07:54:55;;;;;;;8.40;3.88;;;20.90;99.90;;;20.32;100.00;97418.31;4985202;28;20141;-74
2022/05/11 08:00:09;;;;;;;5.65;3.67;;;21.20;99.90;;;20.32;100.00;97428.88;4981189;28;20113;-72
2022/05/11 08:02:39;;;;;;;5.47;3.30;;;21.30;99.90;;;20.63;100.00;97427.09;4977885;28;20129;-74
2022/05/11 08:05:11;;;;;;;6.47;3.80;;;21.40;99.90;;;20.59;100.00;97409.88;4970777;28;20050;-73
2022/05/11 08:07:46;;;;;;;4.07;3.60;;;21.50;99.90;;;20.83;100.00;97406.09;4975747;28;20444;-74
2022/05/11 08:10:27;;;;;;;7.57;3.85;;;21.60;99.90;;;20.76;100.00;97412.88;4973640;28;20166;-73
2022/05/11 08:12:54;;;;;;;12.82;3.95;;;21.60;99.90;;;21.19;100.00;97406.44;4959013;28;20054;-74
2022/05/11 08:15:24;;;;;;;6.60;3.72;;;21.80;99.90;;;21.23;100.00;97402.56;4974926;28;20521;-74
2022/05/11 08:17:52;;;;;;;5.53;3.53;;;22.00;99.90;;;21.01;100.00;97408.94;4980943;28;20070;-73
2022/05/11 08:20:27;;;;;;;6.13;3.38;;;22.10;99.90;;;20.97;100.00;97412.78;4979630;28;20137;-73
2022/05/11 08:22:56;;;;;;;6.03;3.42;;;22.10;99.90;;;21.44;100.00;97402.47;4968248;28;20050;-74
2022/05/11 08:25:28;;;;;;;5.43;3.22;;;22.20;99.90;;;21.74;100.00;97398.91;4978534;28;20137;-73
2022/05/11 08:27:56;;;;;;;5.23;3.63;;;22.40;99.90;;;21.58;100.00;97414.47;4959081;28;20054;-74
2022/05/11 08:33:22;;;;;;;4.68;3.28;;;22.60;99.90;;;21.83;100.00;97405.16;4977217;28;20054;-73
2022/05/11 08:36:20;;;;;;;7.47;3.90;;;22.80;99.90;;;21.66;100.00;97417.25;4976019;28;20513;-74
2022/05/11 08:38:57;;;;;;;6.07;2.72;;;23.00;99.90;;;21.50;100.00;97397.47;4950538;28;20594;-72
2022/05/11 08:41:48;;;;;;;4.78;2.67;;;23.10;99.90;;;22.01;100.00;97398.19;4986555;28;20441;-73
2022/05/11 08:44:23;;;;;;;4.07;2.55;;;23.30;99.90;;;22.29;100.00;97406.22;4977456;28;20058;-73
2022/05/11 08:47:09;;;;;;;6.05;2.92;;;23.50;99.90;;;22.13;100.00;97401.50;4988310;28;20396;-73
2022/05/11 08:50:06;;;;;;;4.57;2.08;;;23.80;99.90;;;22.29;100.00;97404.41;4984864;28;20142;-72
2022/05/11 08:53:04;;;;;;;4.30;2.88;;;24.00;99.90;;;22.60;100.00;97390.94;4983005;28;20536;-73
2022/05/11 08:55:45;;;;;;;9.45;2.88;;;24.10;99.90;;;22.34;100.00;97410.09;4984058;28;20073;-73
2022/05/11 08:58:28;;;;;;;6.40;2.60;;;24.20;99.90;;;22.70;100.00;97396.22;4986822;28;20062;-72
2022/05/11 09:00:57;;;;;;;3.85;2.10;;;24.40;99.90;;;22.73;100.00;97402.03;4983646;28;20058;-72
2022/05/11 09:03:33;;;;;;;3.65;2.20;;;24.60;99.90;;;22.84;100.00;97386.94;4990019;28;20051;-73
2022/05/11 09:06:30;;;;;;;7.43;2.42;;;24.70;99.90;;;22.94;100.00;97383.28;4981931;28;20070;-72
2022/05/11 09:09:00;;;;;;;9.55;2.28;;;24.70;99.90;;;23.13;100.00;97381.53;4983953;28;20046;-72
2022/05/11 09:11:50;;;;;;;5.90;2.42;;;24.70;99.90;;;24.29;100.00;97384.19;4977847;28;20500;-73
2022/05/11 09:14:35;;;;;;;8.85;2.67;;;24.90;99.90;;;23.38;100.00;97401.97;4982935;28;20050;-72
2022/05/11 09:17:06;;;;;;;3.72;2.05;;;25.10;99.90;;;24.20;100.00;97367.41;4989625;28;20064;-72
2022/05/11 09:19:35;;;;;;;4.68;1.73;;;25.30;99.90;;;23.80;100.00;97390.78;4980809;28;20560;-72
2022/05/11 09:22:10;;;;;;;5.15;2.30;;;25.30;99.90;;;24.69;100.00;97375.63;4981626;28;20086;-73
2022/05/11 09:24:47;;;;;;;2.53;1.80;;;25.30;99.90;;;24.42;100.00;97381.94;4981953;28;20057;-73
2022/05/11 09:27:27;;;;;;;5.53;2.13;;;25.50;99.90;;;24.31;100.00;97388.34;4979710;28;20153;-72
2022/05/11 09:30:26;;;;;;;6.90;2.20;;;25.70;99.90;;;23.75;100.00;97379.81;4988459;28;20058;-73
2022/05/11 09:33:16;;;;;;;3.40;1.98;;;25.90;98.90;;;25.08;100.00;97364.50;4983028;28;20129;-72
2022/05/11 09:35:45;;;;;;;4.05;1.70;;;25.90;99.90;;;24.84;100.00;97374.06;4982921;28;20129;-72
2022/05/11 09:38:19;;;;;;;7.63;2.25;;;25.90;99.20;;;24.58;100.00;97378.56;4982956;28;20070;-72
2022/05/11 09:41:12;;;;;;;5.32;2.03;;;26.20;98.10;;;24.55;100.00;97374.41;4983078;28;20042;-72
2022/05/11 09:43:56;;;;;;;9.60;2.13;;;26.00;98.10;;;24.73;100.00;97390.25;4976232;28;20119;-72
2022/05/11 09:46:33;;;;;;;7.22;2.20;;;26.00;97.30;;;24.84;100.00;97371.41;4979435;28;20085;-72
2022/05/11 09:49:15;;;;;;;7.10;2.20;;;26.20;97.90;;;24.39;100.00;97371.66;4987657;28;20062;-72
2022/05/11 09:51:56;;;;;;;5.45;1.73;;;26.30;97.00;;;25.22;100.00;97386.97;4980750;28;20508;-72
2022/05/11 09:54:46;;;;;;;4.68;2.25;;;26.40;97.40;;;24.81;100.00;97366.41;4978378;28;20575;-73
2022/05/11 09:57:13;;;;;;;3.78;1.90;;;26.30;96.90;;;24.24;100.00;97366.06;4981300;28;20054;-72
2022/05/11 09:59:52;;;;;;;3.92;1.98;;;26.30;95.80;;;24.14;100.00;97354.75;4982271;28;20054;-72
2022/05/11 10:02:38;;;;;;;6.15;2.10;;;26.20;95.90;;;24.89;100.00;97359.47;4983804;28;20540;-71
2022/05/11 10:05:26;;;;;;;3.25;1.52;;;26.20;95.60;;;24.72;100.00;97377.13;4981231;28;20128;-72
2022/05/11 10:08:01;;;;;;;4.68;1.95;;;26.30;95.60;;;25.63;100.00;97344.50;4979563;28;20149;-72
2022/05/11 10:10:52;;;;;;;4.07;1.90;;;26.50;96.20;;;25.33;100.00;97324.75;4983575;28;20119;-72
2022/05/11 10:13:27;;;;;;;3.83;1.60;;;26.50;96.50;;;25.19;100.00;97344.81;4978471;28;20509;-73
2022/05/11 10:21:56;;;;;;;4.53;1.50;;;26.80;94.80;;;26.38;100.00;97324.81;4978633;28;20134;-73
2022/05/11 10:24:58;;;;;;;4.00;1.75;;;27.00;95.10;;;25.46;100.00;97346.34;4982208;28;20046;-72
2022/05/11 10:27:45;;;;;;;3.05;1.80;;;27.10;93.60;;;25.78;100.00;97345.50;4984167;28;20074;-73
2022/05/11 10:30:40;;;;;;;8.48;1.90;;;27.20;93.40;;;25.70;100.00;97318.91;4978141;28;20072;-73
2022/05/11 10:33:22;;;;;;;3.17;1.60;;;27.30;92.60;;;26.07;100.00;97325.59;4994776;28;20165;-71
2022/05/11 10:36:04;;;;;;;4.85;1.67;;;27.30;92.80;;;24.94;100.00;97344.72;4983786;28;20481;-72
2022/05/11 10:38:40;;;;;;;6.85;2.22;;;27.40;92.30;;;25.32;100.00;97344.34;4983548;28;20614;-73
2022/05/11 10:41:31;;;;;;;9.40;1.55;;;27.30;92.50;;;25.93;100.00;97312.94;4972587;28;20090;-72
2022/05/11 10:44:27;;;;;;;5.47;1.30;;;27.20;91.60;;;26.06;100.00;97318.59;4977544;28;20477;-73
2022/05/11 10:47:38;;;;;;;2.67;1.30;;;27.00;91.00;;;25.99;100.00;97339.72;4960976;28;20134;-72
2022/05/11 10:50:31;;;;;;;5.05;1.65;;;27.10;91.80;;;25.16;100.00;97331.84;4986360;28;20078;-72
2022/05/11 10:53:32;;;;;;;4.45;1.58;;;27.10;91.60;;;25.33;100.00;97327.41;4975607;28;20305;-73
2022/05/11 10:56:14;;;;;;;10.07;1.50;;;27.30;91.30;;;25.17;100.00;97315.72;4978984;28;20469;-73
2022/05/11 10:58:59;;;;;;;;;;;27.10;90.40;;;24.68;100.00;97335.97;4977151;28;20059;-73
2022/05/11 11:02:10;;;;;;;9.45;1.30;;;26.90;90.10;;;25.01;100.00;97327.13;4982879;28;19968;-72
2022/05/11 11:05:22;;;;;;;4.72;1.50;;;26.90;90.60;;;25.37;100.00;97323.41;4958031;28;20134;-73